sensor_id;sensor_type;location;lat;lon;timestamp;P1;durP1;ratioP1;P2;durP2;ratioP2
17065;SDS011;23120;52.336;21.182;2023-02-28T00:01:17;0.40;;;0.40;;
17065;SDS011;23120;52.336;21.182;2023-02-28T00:03:44;0.30;;;0.30;;
17065;SDS011;23120;52.336;21.182;2023-02-28T00:06:11;0.40;;;0.40;;
17065;SDS011;23120;52.336;21.182;2023-02-28T00:08:38;0.40;;;0.40;;
17065;SDS011;23120;52.336;21.182;2023-02-28T00:11:07;0.40;;;0.40;;
17065;SDS011;23120;52.336;21.182;2023-02-28T00:13:36;0.40;;;0.40;;
17065;SDS011;23120;52.336;21.182;2023-02-28T00:16:05;0.40;;;0.40;;
17065;SDS011;23120;52.336;21.182;2023-02-28T00:18:34;0.40;;;0.40;;
17065;SDS011;23120;52.336;21.182;2023-02-28T00:21:01;0.40;;;0.40;;
17065;SDS011;23120;52.336;21.182;2023-02-28T00:23:28;0.40;;;0.40;;
17065;SDS011;23120;52.336;21.182;2023-02-28T00:25:55;0.40;;;0.40;;
17065;SDS011;23120;52.336;21.182;2023-02-28T00:28:23;0.40;;;0.40;;
17065;SDS011;23120;52.336;21.182;2023-02-28T00:30:50;0.40;;;0.40;;
17065;SDS011;23120;52.336;21.182;2023-02-28T00:33:17;0.30;;;0.30;;
17065;SDS011;23120;52.336;21.182;2023-02-28T00:35:44;0.40;;;0.40;;
17065;SDS011;23120;52.336;21.182;2023-02-28T00:38:12;0.30;;;0.30;;
17065;SDS011;23120;52.336;21.182;2023-02-28T00:40:39;0.30;;;0.30;;
17065;SDS011;23120;52.336;21.182;2023-02-28T00:43:05;0.30;;;0.30;;
17065;SDS011;23120;52.336;21.182;2023-02-28T00:45:34;0.40;;;0.40;;
17065;SDS011;23120;52.336;21.182;2023-02-28T00:48:01;0.40;;;0.40;;
17065;SDS011;23120;52.336;21.182;2023-02-28T00:50:28;0.40;;;0.40;;
17065;SDS011;23120;52.336;21.182;2023-02-28T00:52:56;0.40;;;0.40;;
17065;SDS011;23120;52.336;21.182;2023-02-28T00:55:22;0.40;;;0.40;;
17065;SDS011;23120;52.336;21.182;2023-02-28T00:57:49;0.40;;;0.40;;
17065;SDS011;23120;52.336;21.182;2023-02-28T01:00:16;0.40;;;0.40;;
17065;SDS011;23120;52.336;21.182;2023-02-28T01:02:45;0.40;;;0.40;;
17065;SDS011;23120;52.336;21.182;2023-02-28T01:05:13;0.40;;;0.40;;
17065;SDS011;23120;52.336;21.182;2023-02-28T01:07:40;0.40;;;0.40;;
17065;SDS011;23120;52.336;21.182;2023-02-28T01:10:07;0.40;;;0.40;;
17065;SDS011;23120;52.336;21.182;2023-02-28T01:12:35;0.40;;;0.40;;
17065;SDS011;23120;52.336;21.182;2023-02-28T01:15:03;0.40;;;0.40;;
17065;SDS011;23120;52.336;21.182;2023-02-28T01:17:30;0.40;;;0.40;;
17065;SDS011;23120;52.336;21.182;2023-02-28T01:20:01;0.40;;;0.40;;
17065;SDS011;23120;52.336;21.182;2023-02-28T01:22:28;0.40;;;0.40;;
17065;SDS011;23120;52.336;21.182;2023-02-28T01:24:55;0.40;;;0.40;;
17065;SDS011;23120;52.336;21.182;2023-02-28T01:27:22;0.40;;;0.40;;
17065;SDS011;23120;52.336;21.182;2023-02-28T01:29:51;0.40;;;0.40;;
17065;SDS011;23120;52.336;21.182;2023-02-28T01:32:17;0.40;;;0.40;;
17065;SDS011;23120;52.336;21.182;2023-02-28T01:34:44;0.40;;;0.40;;
17065;SDS011;23120;52.336;21.182;2023-02-28T01:37:13;0.40;;;0.40;;
17065;SDS011;23120;52.336;21.182;2023-02-28T01:39:42;0.40;;;0.40;;
17065;SDS011;23120;52.336;21.182;2023-02-28T01:42:09;0.40;;;0.40;;
17065;SDS011;23120;52.336;21.182;2023-02-28T01:44:57;0.40;;;0.40;;
17065;SDS011;23120;52.336;21.182;2023-02-28T01:47:31;0.40;;;0.40;;
17065;SDS011;23120;52.336;21.182;2023-02-28T01:50:01;0.40;;;0.40;;
17065;SDS011;23120;52.336;21.182;2023-02-28T01:52:31;0.40;;;0.40;;
17065;SDS011;23120;52.336;21.182;2023-02-28T01:54:59;0.40;;;0.40;;
17065;SDS011;23120;52.336;21.182;2023-02-28T01:57:32;0.40;;;0.40;;
17065;SDS011;23120;52.336;21.182;2023-02-28T02:00:04;0.40;;;0.40;;
17065;SDS011;23120;52.336;21.182;2023-02-28T02:02:46;0.40;;;0.40;;
17065;SDS011;23120;52.336;21.182;2023-02-28T02:05:16;0.40;;;0.40;;
17065;SDS011;23120;52.336;21.182;2023-02-28T02:07:46;0.40;;;0.40;;
17065;SDS011;23120;52.336;21.182;2023-02-28T02:10:16;0.40;;;0.40;;
17065;SDS011;23120;52.336;21.182;2023-02-28T02:12:53;0.40;;;0.40;;
17065;SDS011;23120;52.336;21.182;2023-02-28T02:15:39;0.40;;;0.40;;
17065;SDS011;23120;52.336;21.182;2023-02-28T02:18:13;0.40;;;0.40;;
17065;SDS011;23120;52.336;21.182;2023-02-28T02:20:58;0.40;;;0.40;;
17065;SDS011;23120;52.336;21.182;2023-02-28T02:26:52;0.40;;;0.40;;
17065;SDS011;23120;52.336;21.182;2023-02-28T02:35:56;0.43;;;0.43;;
17065;SDS011;23120;52.336;21.182;2023-02-28T02:38:31;0.40;;;0.40;;
17065;SDS011;23120;52.336;21.182;2023-02-28T02:41:04;0.40;;;0.40;;
17065;SDS011;23120;52.336;21.182;2023-02-28T02:43:39;0.40;;;0.40;;
17065;SDS011;23120;52.336;21.182;2023-02-28T02:46:12;0.47;;;0.47;;
17065;SDS011;23120;52.336;21.182;2023-02-28T02:48:44;0.40;;;0.40;;
17065;SDS011;23120;52.336;21.182;2023-02-28T02:51:14;0.40;;;0.40;;
17065;SDS011;23120;52.336;21.182;2023-02-28T02:53:44;0.40;;;0.40;;
17065;SDS011;23120;52.336;21.182;2023-02-28T02:56:15;0.40;;;0.40;;
17065;SDS011;23120;52.336;21.182;2023-02-28T02:58:45;0.40;;;0.40;;
17065;SDS011;23120;52.336;21.182;2023-02-28T03:01:19;0.40;;;0.40;;
17065;SDS011;23120;52.336;21.182;2023-02-28T03:03:52;0.40;;;0.40;;
17065;SDS011;23120;52.336;21.182;2023-02-28T03:06:23;0.40;;;0.40;;
17065;SDS011;23120;52.336;21.182;2023-02-28T03:08:51;0.40;;;0.40;;
17065;SDS011;23120;52.336;21.182;2023-02-28T03:11:18;0.47;;;0.47;;
17065;SDS011;23120;52.336;21.182;2023-02-28T03:13:52;0.43;;;0.43;;
17065;SDS011;23120;52.336;21.182;2023-02-28T03:16:35;0.50;;;0.50;;
17065;SDS011;23120;52.336;21.182;2023-02-28T03:19:13;0.40;;;0.40;;
17065;SDS011;23120;52.336;21.182;2023-02-28T03:21:55;0.50;;;0.50;;
17065;SDS011;23120;52.336;21.182;2023-02-28T03:24:35;0.40;;;0.40;;
17065;SDS011;23120;52.336;21.182;2023-02-28T03:27:10;0.40;;;0.40;;
17065;SDS011;23120;52.336;21.182;2023-02-28T03:29:39;0.40;;;0.40;;
17065;SDS011;23120;52.336;21.182;2023-02-28T03:32:12;0.40;;;0.40;;
17065;SDS011;23120;52.336;21.182;2023-02-28T03:34:47;0.40;;;0.40;;
17065;SDS011;23120;52.336;21.182;2023-02-28T03:37:22;0.40;;;0.40;;
17065;SDS011;23120;52.336;21.182;2023-02-28T03:39:53;0.40;;;0.40;;
17065;SDS011;23120;52.336;21.182;2023-02-28T03:42:23;0.50;;;0.50;;
17065;SDS011;23120;52.336;21.182;2023-02-28T03:44:54;0.40;;;0.40;;
17065;SDS011;23120;52.336;21.182;2023-02-28T03:47:24;0.40;;;0.40;;
17065;SDS011;23120;52.336;21.182;2023-02-28T03:49:56;0.40;;;0.40;;
17065;SDS011;23120;52.336;21.182;2023-02-28T03:52:30;0.40;;;0.40;;
17065;SDS011;23120;52.336;21.182;2023-02-28T03:55:00;0.40;;;0.40;;
17065;SDS011;23120;52.336;21.182;2023-02-28T03:57:33;0.43;;;0.43;;
17065;SDS011;23120;52.336;21.182;2023-02-28T04:00:04;0.40;;;0.40;;
17065;SDS011;23120;52.336;21.182;2023-02-28T04:02:38;0.40;;;0.40;;
17065;SDS011;23120;52.336;21.182;2023-02-28T04:05:06;0.40;;;0.40;;
17065;SDS011;23120;52.336;21.182;2023-02-28T04:07:35;0.40;;;0.40;;
17065;SDS011;23120;52.336;21.182;2023-02-28T04:10:03;0.40;;;0.40;;
17065;SDS011;23120;52.336;21.182;2023-02-28T04:12:30;0.40;;;0.40;;
17065;SDS011;23120;52.336;21.182;2023-02-28T04:14:58;0.40;;;0.40;;
17065;SDS011;23120;52.336;21.182;2023-02-28T04:17:24;0.40;;;0.40;;
17065;SDS011;23120;52.336;21.182;2023-02-28T04:19:51;0.40;;;0.40;;
17065;SDS011;23120;52.336;21.182;2023-02-28T04:22:19;0.40;;;0.40;;
17065;SDS011;23120;52.336;21.182;2023-02-28T04:24:47;0.40;;;0.40;;
17065;SDS011;23120;52.336;21.182;2023-02-28T04:27:14;0.40;;;0.40;;
17065;SDS011;23120;52.336;21.182;2023-02-28T04:29:41;0.40;;;0.40;;
17065;SDS011;23120;52.336;21.182;2023-02-28T04:32:11;0.40;;;0.40;;
17065;SDS011;23120;52.336;21.182;2023-02-28T04:34:38;0.40;;;0.40;;
17065;SDS011;23120;52.336;21.182;2023-02-28T04:37:05;0.40;;;0.40;;
17065;SDS011;23120;52.336;21.182;2023-02-28T04:39:34;0.40;;;0.40;;
17065;SDS011;23120;52.336;21.182;2023-02-28T04:42:03;0.40;;;0.40;;
17065;SDS011;23120;52.336;21.182;2023-02-28T04:44:30;0.40;;;0.40;;
17065;SDS011;23120;52.336;21.182;2023-02-28T04:46:57;0.40;;;0.40;;
17065;SDS011;23120;52.336;21.182;2023-02-28T04:49:24;0.40;;;0.40;;
17065;SDS011;23120;52.336;21.182;2023-02-28T04:51:51;0.50;;;0.50;;
17065;SDS011;23120;52.336;21.182;2023-02-28T04:54:18;0.40;;;0.40;;
17065;SDS011;23120;52.336;21.182;2023-02-28T04:56:45;0.40;;;0.40;;
17065;SDS011;23120;52.336;21.182;2023-02-28T04:59:16;0.40;;;0.40;;
17065;SDS011;23120;52.336;21.182;2023-02-28T05:01:45;0.40;;;0.40;;
17065;SDS011;23120;52.336;21.182;2023-02-28T05:04:13;0.30;;;0.30;;
17065;SDS011;23120;52.336;21.182;2023-02-28T05:06:40;0.40;;;0.40;;
17065;SDS011;23120;52.336;21.182;2023-02-28T05:09:07;0.47;;;0.47;;
17065;SDS011;23120;52.336;21.182;2023-02-28T05:11:36;0.40;;;0.40;;
17065;SDS011;23120;52.336;21.182;2023-02-28T05:14:04;0.40;;;0.40;;
17065;SDS011;23120;52.336;21.182;2023-02-28T05:16:34;0.43;;;0.43;;
17065;SDS011;23120;52.336;21.182;2023-02-28T05:19:01;0.40;;;0.40;;
17065;SDS011;23120;52.336;21.182;2023-02-28T05:21:29;0.40;;;0.40;;
17065;SDS011;23120;52.336;21.182;2023-02-28T05:24:00;0.40;;;0.40;;
17065;SDS011;23120;52.336;21.182;2023-02-28T05:26:29;0.40;;;0.40;;
17065;SDS011;23120;52.336;21.182;2023-02-28T05:28:56;0.47;;;0.47;;
17065;SDS011;23120;52.336;21.182;2023-02-28T05:31:23;0.40;;;0.40;;
17065;SDS011;23120;52.336;21.182;2023-02-28T05:33:51;0.40;;;0.40;;
17065;SDS011;23120;52.336;21.182;2023-02-28T05:36:18;0.40;;;0.40;;
17065;SDS011;23120;52.336;21.182;2023-02-28T05:38:46;0.50;;;0.50;;
17065;SDS011;23120;52.336;21.182;2023-02-28T05:41:14;0.43;;;0.43;;
17065;SDS011;23120;52.336;21.182;2023-02-28T05:43:41;0.40;;;0.40;;
17065;SDS011;23120;52.336;21.182;2023-02-28T05:46:09;0.40;;;0.40;;
17065;SDS011;23120;52.336;21.182;2023-02-28T05:48:38;0.40;;;0.40;;
17065;SDS011;23120;52.336;21.182;2023-02-28T05:51:08;0.50;;;0.50;;
17065;SDS011;23120;52.336;21.182;2023-02-28T05:53:35;0.40;;;0.40;;
17065;SDS011;23120;52.336;21.182;2023-02-28T05:56:02;0.50;;;0.50;;
17065;SDS011;23120;52.336;21.182;2023-02-28T05:58:29;0.47;;;0.47;;
17065;SDS011;23120;52.336;21.182;2023-02-28T06:00:57;0.40;;;0.40;;
17065;SDS011;23120;52.336;21.182;2023-02-28T06:03:24;0.40;;;0.40;;
17065;SDS011;23120;52.336;21.182;2023-02-28T06:05:51;0.40;;;0.40;;
17065;SDS011;23120;52.336;21.182;2023-02-28T06:08:19;0.50;;;0.50;;
17065;SDS011;23120;52.336;21.182;2023-02-28T06:10:47;0.40;;;0.40;;
17065;SDS011;23120;52.336;21.182;2023-02-28T06:13:14;0.40;;;0.40;;
17065;SDS011;23120;52.336;21.182;2023-02-28T06:15:41;0.40;;;0.40;;
17065;SDS011;23120;52.336;21.182;2023-02-28T06:18:07;0.40;;;0.40;;
17065;SDS011;23120;52.336;21.182;2023-02-28T06:20:34;0.40;;;0.40;;
17065;SDS011;23120;52.336;21.182;2023-02-28T06:23:01;0.40;;;0.40;;
17065;SDS011;23120;52.336;21.182;2023-02-28T06:25:30;0.40;;;0.40;;
17065;SDS011;23120;52.336;21.182;2023-02-28T06:27:57;0.40;;;0.40;;
17065;SDS011;23120;52.336;21.182;2023-02-28T06:30:24;0.40;;;0.40;;
17065;SDS011;23120;52.336;21.182;2023-02-28T06:32:53;0.40;;;0.40;;
17065;SDS011;23120;52.336;21.182;2023-02-28T06:35:20;0.40;;;0.40;;
17065;SDS011;23120;52.336;21.182;2023-02-28T06:37:47;0.50;;;0.50;;
17065;SDS011;23120;52.336;21.182;2023-02-28T06:40:15;0.40;;;0.40;;
17065;SDS011;23120;52.336;21.182;2023-02-28T06:42:43;0.40;;;0.40;;
17065;SDS011;23120;52.336;21.182;2023-02-28T06:45:10;0.50;;;0.50;;
17065;SDS011;23120;52.336;21.182;2023-02-28T06:47:38;0.40;;;0.40;;
17065;SDS011;23120;52.336;21.182;2023-02-28T06:50:07;0.40;;;0.40;;
17065;SDS011;23120;52.336;21.182;2023-02-28T06:52:35;0.40;;;0.40;;
17065;SDS011;23120;52.336;21.182;2023-02-28T06:55:03;0.40;;;0.40;;
17065;SDS011;23120;52.336;21.182;2023-02-28T06:57:30;0.40;;;0.40;;
17065;SDS011;23120;52.336;21.182;2023-02-28T07:00:00;0.40;;;0.40;;
17065;SDS011;23120;52.336;21.182;2023-02-28T07:02:29;0.50;;;0.50;;
17065;SDS011;23120;52.336;21.182;2023-02-28T07:04:56;0.40;;;0.40;;
17065;SDS011;23120;52.336;21.182;2023-02-28T07:07:23;0.40;;;0.40;;
17065;SDS011;23120;52.336;21.182;2023-02-28T07:09:50;0.40;;;0.40;;
17065;SDS011;23120;52.336;21.182;2023-02-28T07:12:17;0.40;;;0.40;;
17065;SDS011;23120;52.336;21.182;2023-02-28T07:14:44;0.40;;;0.40;;
17065;SDS011;23120;52.336;21.182;2023-02-28T07:17:13;0.40;;;0.40;;
17065;SDS011;23120;52.336;21.182;2023-02-28T07:19:40;0.40;;;0.40;;
17065;SDS011;23120;52.336;21.182;2023-02-28T07:22:07;0.40;;;0.40;;
17065;SDS011;23120;52.336;21.182;2023-02-28T07:24:34;0.40;;;0.40;;
17065;SDS011;23120;52.336;21.182;2023-02-28T07:27:01;0.40;;;0.40;;
17065;SDS011;23120;52.336;21.182;2023-02-28T07:29:28;0.40;;;0.40;;
17065;SDS011;23120;52.336;21.182;2023-02-28T07:31:55;0.40;;;0.40;;
17065;SDS011;23120;52.336;21.182;2023-02-28T07:34:24;0.40;;;0.40;;
17065;SDS011;23120;52.336;21.182;2023-02-28T07:36:52;0.40;;;0.40;;
17065;SDS011;23120;52.336;21.182;2023-02-28T07:39:20;0.40;;;0.40;;
17065;SDS011;23120;52.336;21.182;2023-02-28T07:41:47;0.40;;;0.40;;
17065;SDS011;23120;52.336;21.182;2023-02-28T07:44:14;0.40;;;0.40;;
17065;SDS011;23120;52.336;21.182;2023-02-28T07:46:42;0.40;;;0.40;;
17065;SDS011;23120;52.336;21.182;2023-02-28T07:49:09;0.40;;;0.40;;
17065;SDS011;23120;52.336;21.182;2023-02-28T07:51:37;0.40;;;0.40;;
17065;SDS011;23120;52.336;21.182;2023-02-28T07:54:04;0.40;;;0.40;;
17065;SDS011;23120;52.336;21.182;2023-02-28T07:56:31;0.40;;;0.40;;
17065;SDS011;23120;52.336;21.182;2023-02-28T07:58:58;0.40;;;0.40;;
17065;SDS011;23120;52.336;21.182;2023-02-28T08:01:26;0.40;;;0.40;;
17065;SDS011;23120;52.336;21.182;2023-02-28T08:03:53;0.40;;;0.40;;
17065;SDS011;23120;52.336;21.182;2023-02-28T08:06:23;0.30;;;0.30;;
17065;SDS011;23120;52.336;21.182;2023-02-28T08:08:52;0.30;;;0.30;;
17065;SDS011;23120;52.336;21.182;2023-02-28T08:11:21;0.30;;;0.30;;
17065;SDS011;23120;52.336;21.182;2023-02-28T08:13:48;0.30;;;0.30;;
17065;SDS011;23120;52.336;21.182;2023-02-28T08:16:17;0.30;;;0.30;;
17065;SDS011;23120;52.336;21.182;2023-02-28T08:18:47;0.30;;;0.30;;
17065;SDS011;23120;52.336;21.182;2023-02-28T08:21:15;0.30;;;0.30;;
17065;SDS011;23120;52.336;21.182;2023-02-28T08:23:42;0.30;;;0.30;;
17065;SDS011;23120;52.336;21.182;2023-02-28T08:26:11;0.33;;;0.33;;
17065;SDS011;23120;52.336;21.182;2023-02-28T08:28:38;0.30;;;0.30;;
17065;SDS011;23120;52.336;21.182;2023-02-28T08:31:09;0.30;;;0.30;;
17065;SDS011;23120;52.336;21.182;2023-02-28T08:33:36;0.30;;;0.30;;
17065;SDS011;23120;52.336;21.182;2023-02-28T08:36:05;0.30;;;0.30;;
17065;SDS011;23120;52.336;21.182;2023-02-28T08:38:33;0.30;;;0.30;;
17065;SDS011;23120;52.336;21.182;2023-02-28T08:41:01;0.30;;;0.30;;
17065;SDS011;23120;52.336;21.182;2023-02-28T08:43:32;0.30;;;0.30;;
17065;SDS011;23120;52.336;21.182;2023-02-28T08:45:59;0.30;;;0.30;;
17065;SDS011;23120;52.336;21.182;2023-02-28T08:48:27;0.30;;;0.30;;
17065;SDS011;23120;52.336;21.182;2023-02-28T08:50:56;0.30;;;0.30;;
17065;SDS011;23120;52.336;21.182;2023-02-28T08:53:24;0.30;;;0.30;;
17065;SDS011;23120;52.336;21.182;2023-02-28T08:55:58;0.30;;;0.30;;
17065;SDS011;23120;52.336;21.182;2023-02-28T08:58:27;0.20;;;0.20;;
17065;SDS011;23120;52.336;21.182;2023-02-28T09:00:56;0.30;;;0.30;;
17065;SDS011;23120;52.336;21.182;2023-02-28T09:03:23;0.30;;;0.30;;
17065;SDS011;23120;52.336;21.182;2023-02-28T09:05:53;0.30;;;0.30;;
17065;SDS011;23120;52.336;21.182;2023-02-28T09:08:20;0.30;;;0.30;;
17065;SDS011;23120;52.336;21.182;2023-02-28T09:10:48;0.30;;;0.30;;
17065;SDS011;23120;52.336;21.182;2023-02-28T09:13:15;0.30;;;0.30;;
17065;SDS011;23120;52.336;21.182;2023-02-28T09:15:42;0.30;;;0.30;;
17065;SDS011;23120;52.336;21.182;2023-02-28T09:18:10;0.30;;;0.30;;
17065;SDS011;23120;52.336;21.182;2023-02-28T09:20:37;0.30;;;0.30;;
17065;SDS011;23120;52.336;21.182;2023-02-28T09:23:04;0.30;;;0.30;;
17065;SDS011;23120;52.336;21.182;2023-02-28T09:25:31;0.30;;;0.30;;
17065;SDS011;23120;52.336;21.182;2023-02-28T09:27:58;0.30;;;0.30;;
17065;SDS011;23120;52.336;21.182;2023-02-28T09:30:25;0.30;;;0.30;;
17065;SDS011;23120;52.336;21.182;2023-02-28T09:32:52;0.30;;;0.30;;
17065;SDS011;23120;52.336;21.182;2023-02-28T09:35:22;0.20;;;0.20;;
17065;SDS011;23120;52.336;21.182;2023-02-28T09:37:51;0.30;;;0.30;;
17065;SDS011;23120;52.336;21.182;2023-02-28T09:40:19;0.30;;;0.30;;
17065;SDS011;23120;52.336;21.182;2023-02-28T09:42:49;0.30;;;0.30;;
17065;SDS011;23120;52.336;21.182;2023-02-28T09:45:21;0.30;;;0.30;;
17065;SDS011;23120;52.336;21.182;2023-02-28T09:47:52;0.30;;;0.30;;
17065;SDS011;23120;52.336;21.182;2023-02-28T09:50:28;0.30;;;0.30;;
17065;SDS011;23120;52.336;21.182;2023-02-28T09:52:59;0.30;;;0.30;;
17065;SDS011;23120;52.336;21.182;2023-02-28T09:55:30;0.30;;;0.30;;
17065;SDS011;23120;52.336;21.182;2023-02-28T09:58:00;0.30;;;0.30;;
17065;SDS011;23120;52.336;21.182;2023-02-28T10:00:28;0.30;;;0.30;;
17065;SDS011;23120;52.336;21.182;2023-02-28T10:03:10;0.30;;;0.30;;
17065;SDS011;23120;52.336;21.182;2023-02-28T10:05:53;0.30;;;0.30;;
17065;SDS011;23120;52.336;21.182;2023-02-28T10:08:26;0.20;;;0.20;;
17065;SDS011;23120;52.336;21.182;2023-02-28T10:10:57;0.30;;;0.30;;
17065;SDS011;23120;52.336;21.182;2023-02-28T10:13:27;0.20;;;0.20;;
17065;SDS011;23120;52.336;21.182;2023-02-28T10:16:00;0.30;;;0.30;;
17065;SDS011;23120;52.336;21.182;2023-02-28T10:18:35;0.20;;;0.20;;
17065;SDS011;23120;52.336;21.182;2023-02-28T10:21:15;0.30;;;0.30;;
17065;SDS011;23120;52.336;21.182;2023-02-28T10:23:46;0.30;;;0.30;;
17065;SDS011;23120;52.336;21.182;2023-02-28T10:26:16;0.20;;;0.20;;
17065;SDS011;23120;52.336;21.182;2023-02-28T10:28:44;0.30;;;0.30;;
17065;SDS011;23120;52.336;21.182;2023-02-28T10:31:11;0.20;;;0.20;;
17065;SDS011;23120;52.336;21.182;2023-02-28T10:33:43;0.30;;;0.30;;
17065;SDS011;23120;52.336;21.182;2023-02-28T10:36:12;0.30;;;0.30;;
17065;SDS011;23120;52.336;21.182;2023-02-28T10:38:43;0.30;;;0.30;;
17065;SDS011;23120;52.336;21.182;2023-02-28T10:41:12;0.20;;;0.20;;
17065;SDS011;23120;52.336;21.182;2023-02-28T10:43:41;0.30;;;0.30;;
17065;SDS011;23120;52.336;21.182;2023-02-28T10:46:11;0.20;;;0.20;;
17065;SDS011;23120;52.336;21.182;2023-02-28T10:48:58;0.20;;;0.20;;
17065;SDS011;23120;52.336;21.182;2023-02-28T10:51:35;0.20;;;0.20;;
17065;SDS011;23120;52.336;21.182;2023-02-28T10:54:04;0.20;;;0.20;;
17065;SDS011;23120;52.336;21.182;2023-02-28T10:56:31;0.30;;;0.30;;
17065;SDS011;23120;52.336;21.182;2023-02-28T10:58:59;0.30;;;0.30;;
17065;SDS011;23120;52.336;21.182;2023-02-28T11:01:34;0.20;;;0.20;;
17065;SDS011;23120;52.336;21.182;2023-02-28T11:04:03;0.20;;;0.20;;
17065;SDS011;23120;52.336;21.182;2023-02-28T11:06:43;0.20;;;0.20;;
17065;SDS011;23120;52.336;21.182;2023-02-28T11:09:15;0.20;;;0.20;;
17065;SDS011;23120;52.336;21.182;2023-02-28T11:11:47;0.30;;;0.30;;
17065;SDS011;23120;52.336;21.182;2023-02-28T11:14:17;0.30;;;0.30;;
17065;SDS011;23120;52.336;21.182;2023-02-28T11:16:47;0.30;;;0.30;;
17065;SDS011;23120;52.336;21.182;2023-02-28T11:19:17;0.30;;;0.30;;
17065;SDS011;23120;52.336;21.182;2023-02-28T11:21:53;0.30;;;0.30;;
17065;SDS011;23120;52.336;21.182;2023-02-28T11:24:23;0.20;;;0.20;;
17065;SDS011;23120;52.336;21.182;2023-02-28T11:26:53;0.20;;;0.20;;
17065;SDS011;23120;52.336;21.182;2023-02-28T11:29:20;0.20;;;0.20;;
17065;SDS011;23120;52.336;21.182;2023-02-28T11:32:02;0.20;;;0.20;;
17065;SDS011;23120;52.336;21.182;2023-02-28T11:34:38;0.30;;;0.30;;
17065;SDS011;23120;52.336;21.182;2023-02-28T11:37:11;0.30;;;0.30;;
17065;SDS011;23120;52.336;21.182;2023-02-28T11:39:39;0.20;;;0.20;;
17065;SDS011;23120;52.336;21.182;2023-02-28T11:42:16;0.30;;;0.30;;
17065;SDS011;23120;52.336;21.182;2023-02-28T11:45:02;0.20;;;0.20;;
17065;SDS011;23120;52.336;21.182;2023-02-28T11:47:38;0.30;;;0.30;;
17065;SDS011;23120;52.336;21.182;2023-02-28T11:50:16;0.30;;;0.30;;
17065;SDS011;23120;52.336;21.182;2023-02-28T11:52:51;0.30;;;0.30;;
17065;SDS011;23120;52.336;21.182;2023-02-28T11:55:20;0.20;;;0.20;;
17065;SDS011;23120;52.336;21.182;2023-02-28T11:57:56;0.30;;;0.30;;
17065;SDS011;23120;52.336;21.182;2023-02-28T12:00:50;0.30;;;0.30;;
17065;SDS011;23120;52.336;21.182;2023-02-28T12:03:29;0.30;;;0.30;;
17065;SDS011;23120;52.336;21.182;2023-02-28T12:06:05;0.20;;;0.20;;
17065;SDS011;23120;52.336;21.182;2023-02-28T12:08:49;0.27;;;0.27;;
17065;SDS011;23120;52.336;21.182;2023-02-28T12:11:27;0.30;;;0.30;;
17065;SDS011;23120;52.336;21.182;2023-02-28T12:17:16;0.20;;;0.20;;
17065;SDS011;23120;52.336;21.182;2023-02-28T12:19:54;0.20;;;0.20;;
17065;SDS011;23120;52.336;21.182;2023-02-28T12:22:28;0.30;;;0.30;;
17065;SDS011;23120;52.336;21.182;2023-02-28T12:25:13;0.30;;;0.30;;
17065;SDS011;23120;52.336;21.182;2023-02-28T12:28:02;0.30;;;0.30;;
17065;SDS011;23120;52.336;21.182;2023-02-28T12:30:31;0.30;;;0.30;;
17065;SDS011;23120;52.336;21.182;2023-02-28T12:33:01;0.30;;;0.30;;
17065;SDS011;23120;52.336;21.182;2023-02-28T12:35:32;0.30;;;0.30;;
17065;SDS011;23120;52.336;21.182;2023-02-28T12:38:04;0.20;;;0.20;;
17065;SDS011;23120;52.336;21.182;2023-02-28T12:40:42;0.20;;;0.20;;
17065;SDS011;23120;52.336;21.182;2023-02-28T12:43:12;0.30;;;0.30;;
17065;SDS011;23120;52.336;21.182;2023-02-28T12:45:43;0.20;;;0.20;;
17065;SDS011;23120;52.336;21.182;2023-02-28T12:48:14;0.20;;;0.20;;
17065;SDS011;23120;52.336;21.182;2023-02-28T12:50:45;0.20;;;0.20;;
17065;SDS011;23120;52.336;21.182;2023-02-28T12:53:15;0.30;;;0.30;;
17065;SDS011;23120;52.336;21.182;2023-02-28T12:55:52;0.30;;;0.30;;
17065;SDS011;23120;52.336;21.182;2023-02-28T12:58:28;0.30;;;0.30;;
17065;SDS011;23120;52.336;21.182;2023-02-28T13:04:14;0.20;;;0.20;;
17065;SDS011;23120;52.336;21.182;2023-02-28T13:06:58;0.20;;;0.20;;
17065;SDS011;23120;52.336;21.182;2023-02-28T13:09:36;0.20;;;0.20;;
17065;SDS011;23120;52.336;21.182;2023-02-28T13:12:12;0.30;;;0.30;;
17065;SDS011;23120;52.336;21.182;2023-02-28T13:14:41;0.30;;;0.30;;
17065;SDS011;23120;52.336;21.182;2023-02-28T13:17:12;0.20;;;0.20;;
17065;SDS011;23120;52.336;21.182;2023-02-28T13:19:45;0.20;;;0.20;;
17065;SDS011;23120;52.336;21.182;2023-02-28T13:22:36;0.20;;;0.20;;
17065;SDS011;23120;52.336;21.182;2023-02-28T13:31:30;0.20;;;0.20;;
17065;SDS011;23120;52.336;21.182;2023-02-28T13:34:04;0.20;;;0.20;;
17065;SDS011;23120;52.336;21.182;2023-02-28T13:36:37;0.30;;;0.30;;
17065;SDS011;23120;52.336;21.182;2023-02-28T13:39:27;0.30;;;0.30;;
17065;SDS011;23120;52.336;21.182;2023-02-28T13:42:23;0.30;;;0.30;;
17065;SDS011;23120;52.336;21.182;2023-02-28T13:47:52;0.20;;;0.20;;
17065;SDS011;23120;52.336;21.182;2023-02-28T13:50:29;0.20;;;0.20;;
17065;SDS011;23120;52.336;21.182;2023-02-28T13:53:02;0.30;;;0.30;;
17065;SDS011;23120;52.336;21.182;2023-02-28T13:55:54;0.20;;;0.20;;
17065;SDS011;23120;52.336;21.182;2023-02-28T13:58:34;0.20;;;0.20;;
17065;SDS011;23120;52.336;21.182;2023-02-28T14:01:14;0.27;;;0.27;;
17065;SDS011;23120;52.336;21.182;2023-02-28T14:03:56;0.20;;;0.20;;
17065;SDS011;23120;52.336;21.182;2023-02-28T14:06:35;0.20;;;0.20;;
17065;SDS011;23120;52.336;21.182;2023-02-28T14:09:05;0.30;;;0.30;;
17065;SDS011;23120;52.336;21.182;2023-02-28T14:11:49;0.20;;;0.20;;
17065;SDS011;23120;52.336;21.182;2023-02-28T14:17:22;0.20;;;0.20;;
17065;SDS011;23120;52.336;21.182;2023-02-28T14:19:51;0.20;;;0.20;;
17065;SDS011;23120;52.336;21.182;2023-02-28T14:22:22;0.30;;;0.30;;
17065;SDS011;23120;52.336;21.182;2023-02-28T14:25:08;0.20;;;0.20;;
17065;SDS011;23120;52.336;21.182;2023-02-28T14:27:45;0.20;;;0.20;;
17065;SDS011;23120;52.336;21.182;2023-02-28T14:30:24;0.20;;;0.20;;
17065;SDS011;23120;52.336;21.182;2023-02-28T14:33:13;0.20;;;0.20;;
17065;SDS011;23120;52.336;21.182;2023-02-28T14:35:57;0.20;;;0.20;;
17065;SDS011;23120;52.336;21.182;2023-02-28T14:38:30;0.20;;;0.20;;
17065;SDS011;23120;52.336;21.182;2023-02-28T14:41:00;0.30;;;0.30;;
17065;SDS011;23120;52.336;21.182;2023-02-28T14:43:31;0.20;;;0.20;;
17065;SDS011;23120;52.336;21.182;2023-02-28T14:45:58;0.20;;;0.20;;
17065;SDS011;23120;52.336;21.182;2023-02-28T14:48:27;0.20;;;0.20;;
17065;SDS011;23120;52.336;21.182;2023-02-28T14:50:56;0.20;;;0.20;;
17065;SDS011;23120;52.336;21.182;2023-02-28T14:53:26;0.20;;;0.20;;
17065;SDS011;23120;52.336;21.182;2023-02-28T14:55:55;0.30;;;0.30;;
17065;SDS011;23120;52.336;21.182;2023-02-28T14:58:23;0.20;;;0.20;;
17065;SDS011;23120;52.336;21.182;2023-02-28T15:00:52;0.20;;;0.20;;
17065;SDS011;23120;52.336;21.182;2023-02-28T15:03:21;0.20;;;0.20;;
17065;SDS011;23120;52.336;21.182;2023-02-28T15:05:52;0.30;;;0.30;;
17065;SDS011;23120;52.336;21.182;2023-02-28T15:08:22;0.30;;;0.30;;
17065;SDS011;23120;52.336;21.182;2023-02-28T15:10:51;0.20;;;0.20;;
17065;SDS011;23120;52.336;21.182;2023-02-28T15:13:20;0.20;;;0.20;;
17065;SDS011;23120;52.336;21.182;2023-02-28T15:15:49;0.20;;;0.20;;
17065;SDS011;23120;52.336;21.182;2023-02-28T15:18:24;0.20;;;0.20;;
17065;SDS011;23120;52.336;21.182;2023-02-28T15:20:55;0.20;;;0.20;;
17065;SDS011;23120;52.336;21.182;2023-02-28T15:23:25;0.20;;;0.20;;